Time;durP1;ratioP1;P1;durP2;ratioP2;P2;SDS_P1;SDS_P2;PMS_P1;PMS_P2;Temp;Humidity;BMP_temperature;BMP_pressure;BME280_temperature;BME280_humidity;BME280_pressure;Samples;Min_cycle;Max_cycle;Signal;HPM_P1;HPM_P2
2023/11/05 00:02:19;;;;;;;1.42;0.20;;;9.20;99.90;;;;;;6051807;23;20058;-82
2023/11/05 00:04:47;;;;;;;4.45;0.65;;;9.20;99.90;;;;;;6054920;23;20046;-82
2023/11/05 00:07:14;;;;;;;2.55;0.45;;;9.20;99.90;;;;;;6114422;23;20019;-82
2023/11/05 00:09:41;;;;;;;3.92;0.63;;;9.20;99.90;;;;;;6059621;23;20031;-82
2023/11/05 00:12:08;;;;;;;1.73;0.30;;;9.20;99.90;;;;;;6055023;23;20105;-82
2023/11/05 00:14:35;;;;;;;2.70;0.60;;;9.20;99.80;;;;;;6047333;23;20022;-82
2023/11/05 00:17:03;;;;;;;2.20;0.40;;;9.30;99.80;;;;;;6045950;23;20082;-82
2023/11/05 00:19:30;;;;;;;1.63;0.40;;;9.30;99.80;;;;;;6067671;23;20469;-82
2023/11/05 00:21:57;;;;;;;3.60;0.73;;;9.40;99.80;;;;;;6067609;23;20105;-82
2023/11/05 00:24:24;;;;;;;3.70;0.88;;;9.50;99.90;;;;;;6091102;23;20093;-82
2023/11/05 00:26:51;;;;;;;4.95;0.77;;;9.50;99.70;;;;;;6043202;23;20030;-82
2023/11/05 00:29:18;;;;;;;3.03;0.60;;;9.50;99.60;;;;;;6066674;23;20019;-82
2023/11/05 00:31:45;;;;;;;2.78;0.30;;;9.60;99.60;;;;;;6043343;23;20026;-82
2023/11/05 00:34:12;;;;;;;1.77;0.40;;;9.60;99.60;;;;;;6043350;23;20057;-82
2023/11/05 00:36:39;;;;;;;4.47;0.35;;;9.60;99.60;;;;;;6043302;23;20053;-82
2023/11/05 00:39:06;;;;;;;2.00;0.32;;;9.60;99.80;;;;;;6066977;23;20026;-82
2023/11/05 00:41:33;;;;;;;4.13;0.50;;;9.70;99.50;;;;;;6043157;23;20015;-82
2023/11/05 00:44:00;;;;;;;1.45;0.30;;;9.70;99.50;;;;;;6042825;23;20022;-82
2023/11/05 00:46:27;;;;;;;1.95;0.30;;;9.70;99.50;;;;;;6042893;23;20053;-82
2023/11/05 00:48:56;;;;;;;1.48;0.20;;;9.70;99.50;;;;;;6090636;23;20023;-82
2023/11/05 00:51:23;;;;;;;2.55;0.25;;;9.70;99.50;;;;;;6090295;23;20457;-82
2023/11/05 00:53:50;;;;;;;2.28;0.40;;;9.70;99.50;;;;;;6066608;23;20023;-82
2023/11/05 00:56:17;;;;;;;3.08;0.22;;;9.70;99.50;;;;;;6019387;23;20026;-82
2023/11/05 00:58:45;;;;;;;1.45;0.20;;;9.70;99.50;;;;;;6042720;23;20026;-82
2023/11/05 01:01:12;;;;;;;3.03;0.45;;;9.60;99.60;;;;;;6043013;23;20023;-82
2023/11/05 01:03:39;;;;;;;1.52;0.30;;;9.60;99.60;;;;;;6066342;23;20109;-82
2023/11/05 01:06:06;;;;;;;2.00;0.82;;;9.60;99.60;;;;;;6066660;23;20544;-82
2023/11/05 01:08:33;;;;;;;1.63;0.20;;;9.60;99.60;;;;;;6042672;23;20019;-82
2023/11/05 01:11:00;;;;;;;3.03;0.43;;;9.60;99.60;;;;;;6019239;23;20512;-83
2023/11/05 01:13:27;;;;;;;1.02;0.10;;;9.60;99.60;;;;;;6090369;23;20109;-82
2023/11/05 01:15:54;;;;;;;2.95;0.30;;;9.70;99.60;;;;;;6066348;23;20516;-82
2023/11/05 01:18:22;;;;;;;1.50;0.30;;;9.70;99.60;;;;;;6090665;23;20121;-82
2023/11/05 01:20:49;;;;;;;4.45;0.28;;;9.70;99.50;;;;;;6090226;23;20027;-82
2023/11/05 01:23:16;;;;;;;1.88;0.73;;;9.80;99.50;;;;;;6042693;23;20042;-82
2023/11/05 01:25:43;;;;;;;1.52;0.20;;;9.80;99.50;;;;;;6066389;23;20015;-82
2023/11/05 01:28:10;;;;;;;2.10;0.40;;;9.80;99.40;;;;;;6090073;23;20102;-82
2023/11/05 01:30:38;;;;;;;2.85;0.20;;;9.90;99.40;;;;;;6043030;23;20073;-82
2023/11/05 01:33:05;;;;;;;1.70;0.20;;;9.90;99.40;;;;;;6042314;23;20030;-82
2023/11/05 01:35:32;;;;;;;2.70;0.45;;;9.90;99.40;;;;;;6043299;23;20034;-82
2023/11/05 01:37:59;;;;;;;3.42;0.30;;;9.90;99.30;;;;;;6042909;23;20023;-82
2023/11/05 01:40:27;;;;;;;3.70;0.30;;;9.90;99.30;;;;;;6066535;23;20442;-82
2023/11/05 01:42:59;;;;;;;3.15;0.20;;;10.00;99.40;;;;;;6066297;23;20022;-82
2023/11/05 01:45:26;;;;;;;1.38;0.10;;;10.00;99.30;;;;;;6066753;23;20045;-82
2023/11/05 01:47:53;;;;;;;2.92;0.22;;;10.00;99.40;;;;;;6042778;23;20019;-82
2023/11/05 01:50:23;;;;;;;1.88;0.17;;;10.00;99.30;;;;;;6092114;23;20411;-82
2023/11/05 01:52:54;;;;;;;0.65;0.10;;;10.00;99.30;;;;;;6067928;23;20023;-82
2023/11/05 01:55:23;;;;;;;;;;;10.00;99.30;;;;;;6092367;23;20353;-82
2023/11/05 01:57:52;;;;;;;1.38;0.15;;;9.90;99.30;;;;;;6092039;23;20407;-82
2023/11/05 02:00:21;;;;;;;1.27;0.10;;;9.90;99.40;;;;;;6092246;23;20034;-82
2023/11/05 02:02:49;;;;;;;2.05;0.20;;;9.90;99.40;;;;;;6020545;23;20031;-82
2023/11/05 02:05:16;;;;;;;1.15;0.20;;;9.90;99.40;;;;;;6044076;23;20033;-82
2023/11/05 02:07:44;;;;;;;1.27;0.13;;;9.90;99.40;;;;;;6067661;23;20019;-82
2023/11/05 02:10:11;;;;;;;2.83;0.20;;;9.90;99.40;;;;;;6091694;23;20026;-81
2023/11/05 02:12:38;;;;;;;2.33;0.30;;;9.80;99.40;;;;;;6043881;23;20394;-82
2023/11/05 02:15:06;;;;;;;2.58;0.32;;;9.90;99.40;;;;;;6067800;23;20027;-82
2023/11/05 02:17:33;;;;;;;1.63;0.20;;;9.80;99.40;;;;;;6067768;23;20026;-82
2023/11/05 02:20:00;;;;;;;0.47;0.15;;;9.80;99.40;;;;;;6043770;23;20027;-82
2023/11/05 02:22:30;;;;;;;1.58;0.20;;;9.90;99.70;;;;;;6043714;23;20031;-82
2023/11/05 02:24:57;;;;;;;1.48;0.20;;;9.90;99.40;;;;;;6067710;23;20418;-82
2023/11/05 02:27:25;;;;;;;0.85;0.20;;;9.90;99.70;;;;;;6068272;23;20023;-82
2023/11/05 02:29:52;;;;;;;3.95;0.30;;;9.90;99.40;;;;;;6043461;23;20387;-82
2023/11/05 02:32:19;;;;;;;2.15;0.25;;;9.90;99.40;;;;;;6043693;23;20046;-82
2023/11/05 02:34:48;;;;;;;1.63;0.17;;;9.90;99.40;;;;;;6043684;23;20468;-82
2023/11/05 02:37:15;;;;;;;1.55;0.10;;;9.90;99.40;;;;;;6067487;23;20089;-83
2023/11/05 02:39:42;;;;;;;1.27;0.30;;;9.90;99.40;;;;;;6043659;23;20023;-83
2023/11/05 02:42:09;;;;;;;2.05;0.28;;;9.90;99.50;;;;;;6044197;23;20023;-82
2023/11/05 02:44:36;;;;;;;2.60;0.20;;;9.90;99.50;;;;;;6067291;23;20038;-82
2023/11/05 02:47:04;;;;;;;1.00;0.40;;;9.90;99.40;;;;;;6067838;23;20050;-82
2023/11/05 02:49:31;;;;;;;2.45;0.20;;;9.90;99.50;;;;;;6067612;23;20434;-82
2023/11/05 02:51:58;;;;;;;1.00;0.20;;;9.90;99.50;;;;;;6044029;23;20040;-82
2023/11/05 02:54:27;;;;;;;1.50;0.30;;;9.90;99.40;;;;;;6067339;23;20029;-82
2023/11/05 02:56:54;;;;;;;2.75;0.20;;;9.90;99.50;;;;;;6043257;23;20034;-82
2023/11/05 02:59:25;;;;;;;2.08;0.15;;;9.90;99.40;;;;;;6067527;23;20091;-82
2023/11/05 03:01:53;;;;;;;0.98;0.20;;;9.90;99.50;;;;;;6043096;23;20023;-82
2023/11/05 03:04:20;;;;;;;1.98;0.20;;;9.80;99.40;;;;;;6043392;23;20023;-82
2023/11/05 03:06:51;;;;;;;1.08;0.10;;;9.90;99.50;;;;;;6043484;23;20022;-82
2023/11/05 03:09:24;;;;;;;0.68;0.20;;;9.90;99.50;;;;;;6070278;23;20522;-82
2023/11/05 03:11:53;;;;;;;1.77;0.20;;;9.90;99.50;;;;;;6067148;23;20023;-83
2023/11/05 03:14:20;;;;;;;3.05;0.20;;;9.90;99.50;;;;;;6043513;23;20504;-82
2023/11/05 03:16:48;;;;;;;1.25;0.10;;;9.90;99.50;;;;;;6091403;23;20453;-82
2023/11/05 03:19:15;;;;;;;2.60;0.40;;;9.90;99.50;;;;;;6091356;23;20106;-82
2023/11/05 03:21:42;;;;;;;2.08;0.20;;;9.90;99.50;;;;;;6043961;23;20121;-82
2023/11/05 03:24:09;;;;;;;0.22;0.10;;;9.90;99.50;;;;;;6115564;23;20026;-82
2023/11/05 03:26:36;;;;;;;0.88;0.10;;;9.90;99.50;;;;;;6043443;23;20027;-82
2023/11/05 03:29:03;;;;;;;1.55;0.20;;;9.90;99.50;;;;;;6067482;23;20358;-83
2023/11/05 03:31:31;;;;;;;3.35;0.30;;;9.90;99.50;;;;;;6115652;23;20390;-82
2023/11/05 03:33:58;;;;;;;1.98;0.20;;;9.90;99.60;;;;;;6115440;23;20023;-82
2023/11/05 03:36:25;;;;;;;2.13;0.30;;;9.90;99.60;;;;;;6067124;23;20049;-82
2023/11/05 03:38:52;;;;;;;1.05;0.15;;;9.90;99.60;;;;;;6091101;23;20026;-82
2023/11/05 03:41:19;;;;;;;1.23;0.17;;;9.90;99.60;;;;;;6043894;23;20357;-83
2023/11/05 03:43:46;;;;;;;2.75;0.75;;;9.90;99.60;;;;;;6067294;23;20074;-82
2023/11/05 03:46:14;;;;;;;0.17;0.10;;;9.90;99.60;;;;;;6066938;23;20102;-83
2023/11/05 03:48:44;;;;;;;0.63;0.10;;;10.00;99.70;;;;;;6043820;23;20030;-83
2023/11/05 03:51:15;;;;;;;1.60;0.10;;;10.00;99.70;;;;;;6091083;23;20085;-82
2023/11/05 03:53:42;;;;;;;1.25;0.22;;;10.00;99.70;;;;;;6067482;23;20022;-82
2023/11/05 03:56:11;;;;;;;0.70;0.10;;;10.00;99.70;;;;;;6066822;23;20109;-82
2023/11/05 03:58:39;;;;;;;1.35;0.10;;;10.00;99.70;;;;;;6067483;23;20034;-82
2023/11/05 04:01:07;;;;;;;0.93;0.10;;;10.00;99.70;;;;;;6067207;23;20030;-82
2023/11/05 04:03:34;;;;;;;1.00;0.10;;;10.00;99.70;;;;;;6066981;23;20026;-82
2023/11/05 04:06:02;;;;;;;1.08;0.20;;;10.00;99.70;;;;;;6091185;23;20106;-83
2023/11/05 04:08:29;;;;;;;1.98;0.10;;;10.00;99.70;;;;;;6091043;23;20027;-82
2023/11/05 04:10:57;;;;;;;0.75;0.10;;;10.00;99.70;;;;;;6090275;23;20018;-82
2023/11/05 04:13:26;;;;;;;0.43;0.10;;;10.00;99.70;;;;;;6090723;23;20030;-82
2023/11/05 04:15:53;;;;;;;0.75;0.10;;;10.00;99.70;;;;;;6090840;23;20033;-82
2023/11/05 04:18:20;;;;;;;0.60;0.10;;;10.00;99.70;;;;;;6067307;23;20034;-82
2023/11/05 04:20:47;;;;;;;1.52;0.20;;;10.00;99.70;;;;;;6091628;23;20026;-83
2023/11/05 04:23:14;;;;;;;0.45;0.10;;;10.00;99.70;;;;;;6091457;23;20505;-81
2023/11/05 04:25:43;;;;;;;0.32;0.05;;;10.00;99.70;;;;;;6101373;23;20023;-82
2023/11/05 04:28:10;;;;;;;1.45;0.20;;;10.00;99.70;;;;;;6087441;23;20048;-82
2023/11/05 04:30:37;;;;;;;0.47;0.10;;;10.00;99.80;;;;;;6089020;23;20007;-81
2023/11/05 04:33:04;;;;;;;0.40;0.00;;;10.10;99.80;;;;;;6131109;23;20026;-82
2023/11/05 04:35:31;;;;;;;0.13;0.05;;;10.10;99.80;;;;;;6070345;23;20023;-81
2023/11/05 04:37:58;;;;;;;1.75;0.08;;;10.10;99.80;;;;;;6091580;23;20367;-82
2023/11/05 04:40:25;;;;;;;0.63;0.08;;;10.10;99.80;;;;;;6093569;23;20023;-82
2023/11/05 04:42:52;;;;;;;0.22;0.10;;;10.10;99.80;;;;;;6044957;23;20113;-82
2023/11/05 04:45:20;;;;;;;1.23;0.20;;;10.10;99.80;;;;;;6067502;23;20020;-82
2023/11/05 04:47:47;;;;;;;0.60;0.00;;;10.10;99.80;;;;;;6090820;23;20030;-82
2023/11/05 04:50:15;;;;;;;1.42;0.25;;;10.10;99.80;;;;;;6090779;23;20023;-82
2023/11/05 04:52:42;;;;;;;0.52;0.00;;;10.10;99.80;;;;;;6066843;23;20335;-82
2023/11/05 04:55:09;;;;;;;0.30;0.03;;;10.10;99.80;;;;;;6043261;23;20102;-81
2023/11/05 04:57:36;;;;;;;0.25;0.03;;;10.10;99.80;;;;;;6090628;23;20354;-82
2023/11/05 05:00:04;;;;;;;0.20;0.10;;;10.10;99.90;;;;;;6090859;23;20029;-82
2023/11/05 05:02:31;;;;;;;0.63;0.00;;;10.10;99.80;;;;;;6090900;23;20033;-82
2023/11/05 05:04:58;;;;;;;1.52;0.10;;;10.20;99.80;;;;;;6042929;23;20105;-82
2023/11/05 05:07:26;;;;;;;0.10;0.00;;;10.10;99.80;;;;;;6090610;23;20401;-82
2023/11/05 05:09:54;;;;;;;0.25;0.00;;;10.10;99.80;;;;;;6078975;23;20094;-82
2023/11/05 05:12:21;;;;;;;0.25;0.00;;;10.20;99.90;;;;;;6095313;23;20046;-82
2023/11/05 05:14:51;;;;;;;0.13;0.05;;;10.10;99.80;;;;;;6047622;23;20027;-82
2023/11/05 05:17:19;;;;;;;0.40;0.10;;;10.20;99.90;;;;;;6071313;23;20441;-82
2023/11/05 05:19:46;;;;;;;0.10;0.05;;;10.20;99.80;;;;;;6071131;23;20525;-82
2023/11/05 05:22:13;;;;;;;0.65;0.10;;;10.20;99.80;;;;;;6095076;23;20053;-82
2023/11/05 05:24:41;;;;;;;0.28;0.03;;;10.20;99.80;;;;;;6121121;23;20081;-82
2023/11/05 05:27:08;;;;;;;1.00;0.10;;;10.20;99.80;;;;;;6097126;23;20038;-83
2023/11/05 05:29:35;;;;;;;0.35;0.00;;;10.20;99.80;;;;;;6121729;23;20026;-83
2023/11/05 05:32:04;;;;;;;0.50;0.10;;;10.20;99.90;;;;;;6097433;23;20014;-82
2023/11/05 05:34:31;;;;;;;0.20;0.00;;;10.20;99.90;;;;;;6073290;23;20023;-82
2023/11/05 05:36:59;;;;;;;0.10;0.00;;;10.20;99.90;;;;;;6097430;23;20026;-82
2023/11/05 05:39:26;;;;;;;0.20;0.08;;;10.20;99.90;;;;;;6072908;23;20027;-82
2023/11/05 05:41:53;;;;;;;0.32;0.00;;;10.20;99.90;;;;;;6073339;23;20014;-82
2023/11/05 05:44:20;;;;;;;0.35;0.10;;;10.30;99.90;;;;;;6097346;23;20078;-83
2023/11/05 05:46:49;;;;;;;1.27;0.10;;;10.30;99.90;;;;;;6073102;23;20106;-82
2023/11/05 05:49:16;;;;;;;0.40;0.10;;;10.20;99.90;;;;;;6073200;23;20022;-82
2023/11/05 05:51:43;;;;;;;0.32;0.20;;;10.30;99.90;;;;;;6073559;23;20088;-82
2023/11/05 05:54:10;;;;;;;0.35;0.10;;;10.30;99.90;;;;;;6096799;23;20026;-82
2023/11/05 05:56:37;;;;;;;0.10;0.00;;;10.30;99.90;;;;;;6097087;23;20445;-82
2023/11/05 05:59:04;;;;;;;0.35;0.05;;;10.30;99.90;;;;;;6098900;23;20026;-82
2023/11/05 06:01:31;;;;;;;0.13;0.00;;;10.30;99.80;;;;;;6072975;23;20027;-82
2023/11/05 06:04:00;;;;;;;0.05;0.00;;;10.30;99.80;;;;;;6072884;23;20360;-82
2023/11/05 06:06:27;;;;;;;0.32;0.10;;;10.30;99.80;;;;;;6096440;23;20029;-82
2023/11/05 06:08:54;;;;;;;0.70;0.38;;;10.30;99.80;;;;;;6072386;23;20030;-82
2023/11/05 06:11:21;;;;;;;0.68;0.10;;;10.40;99.90;;;;;;6121207;23;20022;-82
2023/11/05 06:13:48;;;;;;;0.30;0.10;;;10.40;99.80;;;;;;6096358;23;20073;-82
2023/11/05 06:16:15;;;;;;;0.38;0.10;;;10.40;99.80;;;;;;6096940;23;20413;-82
2023/11/05 06:18:43;;;;;;;0.00;0.00;;;10.40;99.80;;;;;;6072506;23;20026;-82
2023/11/05 06:21:10;;;;;;;0.30;0.05;;;10.40;99.80;;;;;;6121019;23;20054;-82
2023/11/05 06:23:37;;;;;;;0.60;0.10;;;10.40;99.80;;;;;;6096801;23;20073;-83
2023/11/05 06:26:04;;;;;;;0.65;0.10;;;10.40;99.80;;;;;;6096279;23;20022;-82
2023/11/05 06:28:31;;;;;;;0.10;0.10;;;10.40;99.80;;;;;;6072553;23;20445;-82
2023/11/05 06:30:58;;;;;;;0.28;0.10;;;10.40;99.80;;;;;;6096374;23;20473;-82
2023/11/05 06:33:25;;;;;;;0.77;0.25;;;10.40;99.80;;;;;;6072683;23;20022;-82
2023/11/05 06:35:52;;;;;;;0.57;0.10;;;10.40;99.80;;;;;;6096108;23;20052;-82
2023/11/05 06:38:19;;;;;;;1.42;0.25;;;10.40;99.80;;;;;;6096537;23;20073;-82
2023/11/05 06:40:46;;;;;;;0.38;0.10;;;10.40;99.80;;;;;;6072932;23;20376;-82
2023/11/05 06:43:13;;;;;;;0.93;0.20;;;10.50;99.80;;;;;;6072553;23;20093;-81
2023/11/05 06:45:40;;;;;;;1.20;0.28;;;10.50;99.90;;;;;;6072518;23;20022;-82
2023/11/05 06:48:08;;;;;;;0.57;0.15;;;10.50;99.80;;;;;;6096215;23;20023;-82
2023/11/05 06:50:36;;;;;;;0.50;0.20;;;10.50;99.80;;;;;;6096259;23;20019;-82
2023/11/05 06:53:03;;;;;;;1.33;0.05;;;10.50;99.80;;;;;;6072621;23;20413;-82
2023/11/05 06:55:30;;;;;;;1.30;0.20;;;10.50;99.80;;;;;;6072529;23;20073;-82
2023/11/05 06:57:57;;;;;;;0.50;0.20;;;10.50;99.90;;;;;;6072149;23;20026;-82
2023/11/05 07:00:24;;;;;;;1.20;0.17;;;10.60;99.80;;;;;;6096634;23;20402;-82
2023/11/05 07:02:51;;;;;;;2.42;0.20;;;10.60;99.80;;;;;;6072249;23;20350;-83
2023/11/05 07:05:19;;;;;;;0.85;0.22;;;10.60;99.80;;;;;;6072445;23;20520;-82
2023/11/05 07:07:46;;;;;;;0.40;0.10;;;10.60;99.80;;;;;;6072382;23;20048;-82
2023/11/05 07:10:13;;;;;;;1.08;0.50;;;10.60;99.80;;;;;;6095650;23;20105;-82
2023/11/05 07:12:41;;;;;;;0.65;0.20;;;10.60;99.80;;;;;;6072073;23;20018;-82
2023/11/05 07:15:10;;;;;;;0.90;0.22;;;10.60;99.80;;;;;;6072033;23;20405;-83
2023/11/05 07:17:40;;;;;;;1.85;0.10;;;10.60;99.80;;;;;;6072431;23;20018;-82
2023/11/05 07:20:07;;;;;;;1.42;0.40;;;10.70;99.80;;;;;;6096249;23;20101;-82
2023/11/05 07:22:34;;;;;;;0.93;0.20;;;10.70;99.80;;;;;;6095843;23;20082;-82
2023/11/05 07:25:05;;;;;;;0.70;0.20;;;10.70;99.80;;;;;;6096085;23;20050;-83
2023/11/05 07:27:32;;;;;;;1.13;0.20;;;10.70;99.80;;;;;;6119872;23;20089;-82
2023/11/05 07:29:59;;;;;;;2.35;0.20;;;10.70;99.80;;;;;;6095902;23;20019;-82
2023/11/05 07:32:26;;;;;;;0.63;0.20;;;10.70;99.80;;;;;;6095781;23;20492;-82
2023/11/05 07:34:53;;;;;;;1.20;0.30;;;10.70;99.80;;;;;;6120524;23;20030;-82
2023/11/05 07:37:20;;;;;;;1.50;0.20;;;10.80;99.80;;;;;;6120021;23;20033;-82
2023/11/05 07:39:47;;;;;;;1.13;0.20;;;10.80;99.80;;;;;;6095507;23;20520;-82
2023/11/05 07:42:15;;;;;;;0.75;0.20;;;10.80;99.80;;;;;;6095919;23;20023;-82
2023/11/05 07:44:42;;;;;;;1.27;0.20;;;10.80;99.80;;;;;;6071841;23;20026;-82
2023/11/05 07:47:09;;;;;;;0.60;0.10;;;10.80;99.80;;;;;;6071881;23;20069;-82
2023/11/05 07:49:36;;;;;;;1.02;0.32;;;10.90;99.80;;;;;;6072090;23;20022;-82
2023/11/05 07:52:03;;;;;;;0.85;0.20;;;10.90;99.80;;;;;;6072187;23;20022;-82
2023/11/05 07:54:30;;;;;;;1.02;0.28;;;10.90;99.70;;;;;;6096156;23;20073;-82
2023/11/05 07:56:59;;;;;;;1.13;0.30;;;10.90;99.70;;;;;;6071631;23;20022;-82
2023/11/05 07:59:26;;;;;;;0.68;0.20;;;11.00;99.90;;;;;;6071297;23;20030;-82
2023/11/05 08:01:53;;;;;;;1.10;0.30;;;11.00;99.70;;;;;;6071925;23;20093;-82
2023/11/05 08:04:20;;;;;;;1.48;0.30;;;11.00;99.70;;;;;;6071951;23;20026;-82
2023/11/05 08:06:48;;;;;;;8.27;0.47;;;11.10;99.70;;;;;;6095462;23;20093;-82
2023/11/05 08:09:15;;;;;;;1.38;0.45;;;11.00;99.70;;;;;;6066706;23;20030;-82
2023/11/05 08:11:43;;;;;;;1.08;0.40;;;11.00;99.70;;;;;;6090420;23;20042;-82
2023/11/05 08:14:10;;;;;;;1.10;0.30;;;11.00;99.70;;;;;;6042836;23;20073;-82
2023/11/05 08:16:37;;;;;;;1.52;0.40;;;11.00;99.80;;;;;;6042859;23;20031;-83
2023/11/05 08:19:04;;;;;;;1.52;0.50;;;11.00;99.70;;;;;;6042829;23;20027;-82
2023/11/05 08:21:31;;;;;;;1.83;0.50;;;11.00;99.70;;;;;;6042843;23;20027;-84
2023/11/05 08:23:58;;;;;;;2.15;0.40;;;11.00;99.80;;;;;;6043531;23;20023;-83
2023/11/05 08:26:26;;;;;;;1.35;0.50;;;11.00;99.80;;;;;;6090819;23;20435;-83
2023/11/05 08:28:55;;;;;;;1.67;0.60;;;11.00;99.80;;;;;;6043624;23;20023;-83
2023/11/05 08:31:22;;;;;;;2.88;0.47;;;11.10;99.80;;;;;;6066895;23;20105;-84
2023/11/05 08:33:49;;;;;;;1.05;0.40;;;11.10;99.70;;;;;;6067500;23;20045;-83
2023/11/05 08:36:16;;;;;;;2.35;0.60;;;11.10;99.70;;;;;;6044053;23;20105;-84
2023/11/05 08:38:44;;;;;;;1.60;0.40;;;11.10;99.70;;;;;;6020306;23;20023;-84
2023/11/05 08:41:11;;;;;;;2.15;0.70;;;11.20;99.70;;;;;;6067606;23;20019;-83
2023/11/05 08:43:38;;;;;;;1.85;0.35;;;11.20;99.80;;;;;;6068015;23;20026;-82
2023/11/05 08:46:05;;;;;;;1.17;0.40;;;11.20;99.80;;;;;;6053160;23;20045;-82
2023/11/05 08:48:32;;;;;;;1.95;0.40;;;11.20;99.70;;;;;;6049346;23;20420;-85
2023/11/05 08:51:00;;;;;;;2.65;0.32;;;11.30;99.70;;;;;;6082948;23;20082;-85
2023/11/05 08:53:27;;;;;;;2.08;0.50;;;11.30;99.70;;;;;;6045394;23;20025;-85
2023/11/05 08:55:54;;;;;;;1.88;0.40;;;11.30;99.60;;;;;;6092306;23;20438;-84
2023/11/05 08:58:21;;;;;;;1.60;0.50;;;11.40;99.60;;;;;;6046359;23;20026;-83
2023/11/05 09:00:55;;;;;;;2.10;0.60;;;11.40;99.90;;;;;;6070758;23;20090;-83
2023/11/05 09:03:23;;;;;;;0.85;0.30;;;11.50;99.60;;;;;;6069688;23;20105;-84
2023/11/05 09:05:51;;;;;;;2.50;0.60;;;11.50;99.60;;;;;;6070423;23;20019;-84
2023/11/05 09:08:20;;;;;;;2.33;0.40;;;11.50;99.60;;;;;;6094864;23;20025;-83
2023/11/05 09:10:48;;;;;;;1.33;0.50;;;11.50;99.60;;;;;;6069834;23;20027;-84
2023/11/05 09:13:16;;;;;;;2.10;0.40;;;11.50;99.60;;;;;;6047079;23;20082;-84
2023/11/05 09:15:43;;;;;;;2.20;1.15;;;11.50;99.60;;;;;;6070651;23;20022;-84
2023/11/05 09:18:11;;;;;;;1.40;0.50;;;11.50;99.60;;;;;;6093985;23;20031;-84
2023/11/05 09:20:39;;;;;;;2.15;0.80;;;11.50;99.60;;;;;;6070290;23;20031;-84
2023/11/05 09:23:06;;;;;;;1.55;0.40;;;11.50;99.60;;;;;;6046888;23;20093;-84
2023/11/05 09:25:34;;;;;;;3.65;0.70;;;11.50;99.60;;;;;;6070316;23;20030;-84
2023/11/05 09:28:03;;;;;;;2.15;0.60;;;11.60;99.60;;;;;;6022574;23;20022;-83
2023/11/05 09:30:30;;;;;;;2.67;0.60;;;11.60;99.60;;;;;;6070296;23;20429;-83
2023/11/05 09:32:57;;;;;;;2.20;0.40;;;11.60;99.60;;;;;;6046167;23;20456;-84
2023/11/05 09:35:25;;;;;;;1.98;0.40;;;11.60;99.60;;;;;;6070213;23;20038;-85
2023/11/05 09:37:52;;;;;;;1.92;0.52;;;11.60;99.60;;;;;;6046051;23;20027;-84
2023/11/05 09:40:19;;;;;;;3.42;0.73;;;11.60;99.60;;;;;;6046397;23;20033;-84
2023/11/05 09:42:58;;;;;;;1.17;0.40;;;11.60;99.60;;;;;;6022518;23;20481;-83
2023/11/05 09:45:33;;;;;;;4.00;0.65;;;11.70;99.50;;;;;;6046794;23;20026;-83
2023/11/05 09:48:06;;;;;;;3.50;0.85;;;11.60;99.50;;;;;;6093785;23;20467;-84
2023/11/05 09:50:38;;;;;;;2.80;0.70;;;11.60;99.50;;;;;;6070075;23;20094;-82
2023/11/05 09:53:12;;;;;;;2.15;0.65;;;11.60;99.60;;;;;;6093765;23;20014;-83
2023/11/05 09:55:40;;;;;;;1.98;0.60;;;11.60;99.60;;;;;;6069915;23;20027;-84
2023/11/05 09:58:13;;;;;;;3.40;1.02;;;11.60;99.60;;;;;;6094324;23;20046;-84
2023/11/05 10:00:40;;;;;;;3.03;0.77;;;11.70;99.50;;;;;;6022908;23;20339;-84
2023/11/05 10:03:12;;;;;;;2.47;0.90;;;11.80;99.50;;;;;;6094408;23;20026;-84
2023/11/05 10:05:43;;;;;;;1.67;0.60;;;11.80;99.50;;;;;;6046490;23;20023;-84
2023/11/05 10:08:11;;;;;;;2.28;0.88;;;11.90;99.40;;;;;;6093424;23;20022;-83
2023/11/05 10:10:42;;;;;;;5.00;1.02;;;11.90;99.40;;;;;;6020633;23;20334;-84
2023/11/05 10:13:10;;;;;;;4.57;1.20;;;11.90;99.40;;;;;;6068820;23;20375;-84
2023/11/05 10:15:39;;;;;;;4.05;0.80;;;11.90;99.40;;;;;;6044895;23;20026;-83
2023/11/05 10:18:12;;;;;;;3.78;1.65;;;11.90;99.40;;;;;;6044880;23;20026;-84
2023/11/05 10:20:55;;;;;;;4.25;1.48;;;11.90;99.40;;;;;;6045171;23;20022;-85
2023/11/05 10:23:23;;;;;;;2.58;0.90;;;11.90;99.40;;;;;;6092274;23;20022;-84
2023/11/05 10:25:53;;;;;;;3.85;1.08;;;11.80;99.50;;;;;;6045226;23;20030;-85
2023/11/05 10:28:21;;;;;;;4.13;1.33;;;11.80;99.60;;;;;;6044977;23;20018;-82
2023/11/05 10:30:51;;;;;;;2.97;0.82;;;11.70;99.60;;;;;;6068765;23;20018;-85
2023/11/05 10:33:21;;;;;;;4.00;1.13;;;11.80;99.60;;;;;;6069774;23;20042;-86
2023/11/05 10:35:48;;;;;;;3.28;1.10;;;11.70;99.60;;;;;;6069129;23;20027;-86
2023/11/05 10:38:18;;;;;;;2.88;0.93;;;11.70;99.60;;;;;;6045214;23;20102;-87
2023/11/05 10:40:47;;;;;;;3.58;1.10;;;11.70;99.70;;;;;;6068525;23;20027;-85
2023/11/05 10:43:15;;;;;;;3.10;1.08;;;11.70;99.60;;;;;;6045648;23;20051;-87
2023/11/05 10:45:44;;;;;;;3.88;1.20;;;11.60;99.70;;;;;;6068855;23;20027;-85
2023/11/05 10:48:11;;;;;;;3.72;1.20;;;11.60;99.80;;;;;;6021350;23;20019;-85
2023/11/05 10:50:39;;;;;;;2.50;0.90;;;11.50;99.80;;;;;;6093034;23;20015;-84
2023/11/05 10:53:07;;;;;;;3.75;1.08;;;11.50;99.80;;;;;;6068709;23;20074;-85
2023/11/05 10:55:41;;;;;;;3.38;1.10;;;11.50;99.90;;;;;;6068485;23;20025;-85
2023/11/05 10:58:11;;;;;;;3.05;1.30;;;11.50;99.90;;;;;;6068442;23;20438;-85
2023/11/05 11:01:04;;;;;;;4.18;1.67;;;11.50;99.90;;;;;;6089516;23;20027;-85
2023/11/05 11:03:44;;;;;;;4.07;1.42;;;11.40;99.90;;;;;;6090338;23;20026;-87
2023/11/05 11:06:14;;;;;;;3.15;1.25;;;11.40;99.90;;;;;;6045106;23;20113;-85
2023/11/05 11:09:21;;;;;;;;;;;;;;;;;;;;;
2023/11/05 11:12:31;;;;;;;9.55;3.60;;;11.40;99.90;;;;;;6066318;23;20014;-90
2023/11/05 11:15:12;;;;;;;8.80;3.92;;;11.30;99.90;;;;;;6075699;23;20022;-85
2023/11/05 11:17:39;;;;;;;7.15;2.85;;;11.20;99.90;;;;;;6072820;23;20125;-85
2023/11/05 11:20:10;;;;;;;6.03;2.60;;;11.20;99.90;;;;;;6050123;23;20467;-88
2023/11/05 11:22:41;;;;;;;8.57;4.10;;;11.20;99.90;;;;;;6097848;23;20516;-87
2023/11/05 11:25:17;;;;;;;8.10;3.92;;;11.20;99.90;;;;;;6073601;23;20027;-86
2023/11/05 11:27:51;;;;;;;7.20;4.40;;;11.20;99.90;;;;;;6097886;23;20026;-86
2023/11/05 11:30:22;;;;;;;5.95;4.07;;;11.20;99.90;;;;;;6072510;23;20395;-82
2023/11/05 11:32:49;;;;;;;7.85;4.18;;;11.10;99.90;;;;;;6097109;23;20018;-83
2023/11/05 11:35:17;;;;;;;6.78;3.42;;;11.10;99.90;;;;;;6097367;23;20333;-85
2023/11/05 11:37:46;;;;;;;6.90;3.22;;;11.10;99.90;;;;;;6098151;23;20056;-86
2023/11/05 11:40:17;;;;;;;7.00;3.30;;;11.00;99.90;;;;;;6121575;23;20034;-83
2023/11/05 11:42:44;;;;;;;7.75;3.30;;;11.10;99.90;;;;;;6097460;23;20026;-87
2023/11/05 11:45:11;;;;;;;5.68;1.83;;;11.10;99.90;;;;;;6072670;23;20449;-85
2023/11/05 11:47:41;;;;;;;5.90;2.45;;;11.10;99.90;;;;;;6072203;23;20346;-82
2023/11/05 11:50:20;;;;;;;7.18;2.25;;;11.10;99.90;;;;;;6072719;23;20022;-85
2023/11/05 11:53:38;;;;;;;6.22;2.03;;;11.10;99.90;;;;;;6075387;23;20018;-87
2023/11/05 11:56:06;;;;;;;5.90;2.05;;;11.20;99.90;;;;;;6073193;23;20073;-81
2023/11/05 11:58:38;;;;;;;6.32;2.08;;;11.30;99.90;;;;;;6072661;23;20026;-82
2023/11/05 12:01:11;;;;;;;6.78;2.17;;;11.40;99.90;;;;;;6072194;23;20052;-81
2023/11/05 12:03:40;;;;;;;7.68;2.28;;;11.40;99.90;;;;;;6071850;23;20054;-81
2023/11/05 12:06:08;;;;;;;8.05;2.58;;;11.50;99.90;;;;;;6048485;23;20023;-83
2023/11/05 12:08:35;;;;;;;6.13;2.45;;;11.60;99.90;;;;;;6096382;23;20015;-83
2023/11/05 12:11:16;;;;;;;7.68;2.10;;;11.70;99.90;;;;;;6094309;23;20358;-82
2023/11/05 12:13:43;;;;;;;7.05;2.45;;;11.70;99.90;;;;;;6067859;23;20029;-81
2023/11/05 12:16:12;;;;;;;8.60;2.60;;;11.80;99.90;;;;;;6066795;23;20082;-82
2023/11/05 12:18:41;;;;;;;8.73;3.58;;;11.90;99.90;;;;;;6043473;23;20026;-82
2023/11/05 12:21:09;;;;;;;7.85;2.40;;;11.90;99.90;;;;;;6043771;23;20034;-84
2023/11/05 12:23:37;;;;;;;8.60;2.92;;;12.00;99.90;;;;;;6067737;23;20086;-84
2023/11/05 12:26:07;;;;;;;8.38;2.97;;;12.00;99.90;;;;;;6067456;23;20049;-84
2023/11/05 12:28:35;;;;;;;8.15;2.50;;;12.00;99.90;;;;;;6044386;23;20031;-85
2023/11/05 12:31:04;;;;;;;7.32;2.00;;;12.00;99.90;;;;;;6043573;23;20454;-86
2023/11/05 12:33:38;;;;;;;8.38;2.30;;;12.00;99.90;;;;;;6067844;23;20030;-87
2023/11/05 12:36:07;;;;;;;3.97;1.92;;;11.90;99.90;;;;;;6067419;23;20022;-86
2023/11/05 12:38:35;;;;;;;8.35;1.92;;;11.90;99.80;;;;;;6067648;23;20030;-83
2023/11/05 12:41:02;;;;;;;7.50;1.40;;;11.80;99.80;;;;;;6067012;23;20023;-83
2023/11/05 12:43:30;;;;;;;6.63;1.60;;;11.80;99.90;;;;;;6043705;23;20027;-84
2023/11/05 12:45:58;;;;;;;3.00;1.02;;;11.80;99.90;;;;;;6067029;23;20442;-84
2023/11/05 12:48:30;;;;;;;4.72;1.50;;;11.80;99.90;;;;;;6043885;23;20018;-86
2023/11/05 12:51:00;;;;;;;7.25;1.75;;;11.80;99.80;;;;;;6091253;23;20023;-86
2023/11/05 12:53:31;;;;;;;5.55;1.67;;;11.80;99.60;;;;;;6068295;23;20046;-85
2023/11/05 12:56:04;;;;;;;4.53;1.42;;;11.80;99.40;;;;;;6076447;23;20023;-83
2023/11/05 12:58:32;;;;;;;2.88;1.20;;;11.90;99.30;;;;;;6048654;23;20121;-84